Airport Name : Yamoussoukro

Other Name : Yamoussoukro

ICAO : DIYO

IATA : ASK

FAA :

Latitude : 6.903167

Longitude : -5.365581

Country : Ivory Coast

Local Date and Time : 15 Jan 2021 14:37

 

TAF (Terminal Aerodrome Forecast)

TAF DIYO 151112Z 1512/1612 27010KT 8000 BKN011 BECMG 1513/1515 FEW013 BECMG 1522/1523 VRB01KT PROB40 TEMPO 1604/1608 3000 BR FEW006 BKN010 BECMG 1609/1610 22010KT BKN011

 

METAR (METeorological Aerodrome Report)

DIYO 151400Z 24004KT 9999 BKN013 33/22 Q1009 NOSIG

DIYO 151300Z 00000KT 9999 BKN013 30/21 Q1010 NOSIG

DIYO 151200Z 24004KT 9999 BKN013 29/23 Q1011 NOSIG

DIYO 151100Z 28004KT 9999 BKN010 27/23 Q1012 NOSIG

To Charter a Jet Click here.